createdAt,value
2019-02-04T00:00:44.994Z,99.90
2019-02-04T00:09:33.336Z,99.90
2019-02-04T00:12:21.046Z,99.90
2019-02-04T00:15:09.051Z,99.90
2019-02-04T00:17:58.555Z,99.90
2019-02-04T00:20:46.279Z,99.90
2019-02-04T00:23:34.050Z,99.90
2019-02-04T00:26:21.769Z,99.90
2019-02-04T00:29:09.543Z,99.90
2019-02-04T00:31:57.245Z,99.90
2019-02-04T00:34:44.987Z,99.90
2019-02-04T00:37:32.660Z,99.90
2019-02-04T00:40:13.600Z,99.90
2019-02-04T00:42:54.524Z,99.90
2019-02-04T00:45:35.642Z,99.90
2019-02-04T00:48:16.174Z,99.90
2019-02-04T00:50:56.911Z,99.90
2019-02-04T00:53:37.642Z,99.90
2019-02-04T00:56:18.516Z,99.90
2019-02-04T00:58:59.373Z,99.90
2019-02-04T01:01:40.096Z,99.90
2019-02-04T01:04:20.567Z,99.90
2019-02-04T01:07:01.266Z,99.90
2019-02-04T01:09:42.399Z,99.90
2019-02-04T01:12:23.015Z,99.90
2019-02-04T01:15:03.476Z,99.90
2019-02-04T01:17:44.574Z,99.90
2019-02-04T01:20:25.447Z,99.90
2019-02-04T01:23:06.291Z,99.90
2019-02-04T01:25:47.229Z,99.90
2019-02-04T01:28:28.054Z,99.90
2019-02-04T01:31:08.821Z,99.90
2019-02-04T01:33:49.531Z,99.90
2019-02-04T01:36:30.200Z,99.90
2019-02-04T01:39:11.156Z,99.90
2019-02-04T01:41:51.930Z,99.90
2019-02-04T01:44:32.765Z,99.90
2019-02-04T01:47:14.944Z,99.90
2019-02-04T01:49:56.019Z,99.90
2019-02-04T01:52:36.730Z,99.90
2019-02-04T01:55:17.446Z,99.90
2019-02-04T01:57:58.440Z,99.90
2019-02-04T02:00:39.155Z,99.90
2019-02-04T02:03:19.917Z,99.90
2019-02-04T02:06:00.914Z,99.90
2019-02-04T02:08:42.045Z,99.90
2019-02-04T02:11:22.755Z,99.90
2019-02-04T02:14:03.641Z,99.90
2019-02-04T02:16:44.205Z,99.90
2019-02-04T02:19:24.915Z,99.90
2019-02-04T02:22:05.875Z,99.90
2019-02-04T02:24:46.586Z,99.90
2019-02-04T02:27:27.306Z,99.90
2019-02-04T02:30:08.075Z,99.90
2019-02-04T02:32:48.974Z,99.90
2019-02-04T02:35:30.033Z,99.90
2019-02-04T02:38:10.793Z,99.90
2019-02-04T02:40:52.239Z,99.90
2019-02-04T02:43:32.863Z,99.90
2019-02-04T02:46:13.424Z,99.90
2019-02-04T02:48:54.326Z,99.90
2019-02-04T02:51:35.276Z,99.90
2019-02-04T02:54:16.285Z,99.90
2019-02-04T02:56:56.855Z,99.90
2019-02-04T02:59:37.710Z,99.90
2019-02-04T03:02:18.111Z,99.90
2019-02-04T03:04:59.102Z,99.90
2019-02-04T03:07:39.776Z,99.90
2019-02-04T03:10:20.692Z,99.90
2019-02-04T03:13:01.377Z,99.90
2019-02-04T03:15:41.988Z,99.90
2019-02-04T03:18:22.438Z,99.90
2019-02-04T03:21:03.841Z,99.90
2019-02-04T03:23:44.505Z,99.90
2019-02-04T03:26:25.136Z,99.90
2019-02-04T03:29:06.005Z,99.90
2019-02-04T03:31:46.887Z,99.90
2019-02-04T03:34:27.651Z,99.90
2019-02-04T03:37:08.663Z,99.90
2019-02-04T03:39:49.531Z,99.90
2019-02-04T03:42:28.248Z,99.90
2019-02-04T03:45:16.065Z,99.90
2019-02-04T03:48:06.614Z,99.90
2019-02-04T03:50:53.245Z,99.90
2019-02-04T03:53:41.026Z,99.90
2019-02-04T03:56:28.736Z,99.90
2019-02-04T03:59:16.434Z,99.90
2019-02-04T04:02:04.203Z,99.90
2019-02-04T04:04:51.909Z,99.90
2019-02-04T04:07:39.625Z,99.90
2019-02-04T04:10:27.313Z,99.90
2019-02-04T04:13:15.032Z,99.90
2019-02-04T04:16:04.445Z,99.90
2019-02-04T04:18:53.461Z,99.90
2019-02-04T04:21:41.611Z,99.90
2019-02-04T04:24:29.370Z,99.90
2019-02-04T04:27:17.161Z,99.90
2019-02-04T04:30:24.266Z,99.90
2019-02-04T04:33:12.265Z,99.90
2019-02-04T04:35:59.971Z,99.90
2019-02-04T04:38:41.166Z,99.90
2019-02-04T04:41:22.054Z,99.90
2019-02-04T04:44:02.835Z,99.90
2019-02-04T04:46:43.612Z,99.90
2019-02-04T04:49:24.286Z,99.90
2019-02-04T04:52:05.066Z,99.90
2019-02-04T04:54:45.604Z,99.90
2019-02-04T04:57:26.336Z,99.90
2019-02-04T05:00:06.907Z,99.90
2019-02-04T05:02:47.561Z,99.90
2019-02-04T05:05:28.436Z,99.90
2019-02-04T05:08:09.381Z,99.90
2019-02-04T05:10:49.785Z,99.90
2019-02-04T05:13:30.804Z,99.90
2019-02-04T05:16:11.546Z,99.90
2019-02-04T05:18:52.784Z,99.90
2019-02-04T05:21:33.516Z,99.90
2019-02-04T05:24:14.290Z,99.90
2019-02-04T05:26:55.222Z,99.90
2019-02-04T05:29:35.819Z,99.90
2019-02-04T05:32:16.674Z,99.90
2019-02-04T05:34:57.686Z,99.90
2019-02-04T05:37:37.984Z,99.90
2019-02-04T05:40:18.469Z,99.90
2019-02-04T05:42:59.729Z,99.90
2019-02-04T05:45:40.695Z,99.90
2019-02-04T05:48:21.661Z,99.90
2019-02-04T05:51:02.684Z,99.90
2019-02-04T05:53:43.652Z,99.90
2019-02-04T05:56:24.291Z,99.90
2019-02-04T05:59:05.417Z,99.90
2019-02-04T06:01:46.304Z,99.90
2019-02-04T06:04:27.044Z,99.90
2019-02-04T06:07:07.652Z,99.90
2019-02-04T06:09:48.494Z,99.90
2019-02-04T06:12:28.884Z,99.90
2019-02-04T06:15:09.381Z,99.90
2019-02-04T06:17:50.009Z,99.90
2019-02-04T06:20:30.775Z,99.90
2019-02-04T06:23:11.509Z,99.90
2019-02-04T06:25:52.277Z,99.90
2019-02-04T06:28:33.250Z,99.90
2019-02-04T06:31:14.071Z,99.90
2019-02-04T06:33:54.736Z,99.90
2019-02-04T06:36:35.654Z,99.90
2019-02-04T06:39:16.061Z,99.90
2019-02-04T06:41:56.994Z,99.90
2019-02-04T06:44:37.614Z,99.90
2019-02-04T06:47:18.570Z,99.90
2019-02-04T06:49:58.890Z,99.90
2019-02-04T06:52:39.920Z,99.90
2019-02-04T06:55:20.674Z,99.90
2019-02-04T06:58:01.601Z,99.90
2019-02-04T07:00:42.415Z,99.90
2019-02-04T07:03:23.361Z,99.90
2019-02-04T07:06:04.154Z,99.90
2019-02-04T07:08:44.999Z,99.90
2019-02-04T07:11:25.875Z,99.90
2019-02-04T07:14:06.489Z,99.90
2019-02-04T07:16:46.999Z,99.90
2019-02-04T07:19:27.964Z,99.90
2019-02-04T07:22:08.891Z,99.90
2019-02-04T07:24:49.646Z,99.90
2019-02-04T07:27:30.611Z,99.90
2019-02-04T07:30:11.654Z,99.90
2019-02-04T07:32:52.184Z,99.90
2019-02-04T07:35:32.954Z,99.90
2019-02-04T07:38:13.695Z,99.90
2019-02-04T07:40:54.171Z,99.90
2019-02-04T07:43:34.695Z,99.90
2019-02-04T07:46:15.549Z,99.90
2019-02-04T07:48:56.307Z,99.90
2019-02-04T07:51:37.274Z,99.90
2019-02-04T07:54:17.725Z,99.90
2019-02-04T07:56:58.242Z,99.90
2019-02-04T07:59:39.089Z,99.90
2019-02-04T08:02:19.925Z,99.90
2019-02-04T08:05:00.665Z,99.90
2019-02-04T08:07:41.326Z,99.90
2019-02-04T08:10:22.243Z,99.90
2019-02-04T08:13:02.764Z,99.90
2019-02-04T08:15:43.444Z,99.90
2019-02-04T08:18:24.324Z,99.90
2019-02-04T08:21:05.187Z,99.90
2019-02-04T08:23:46.112Z,99.90
2019-02-04T08:26:26.569Z,99.90
2019-02-04T08:29:07.385Z,99.90
2019-02-04T08:31:47.962Z,99.90
2019-02-04T08:34:28.459Z,99.90
2019-02-04T08:37:09.132Z,99.90
2019-02-04T08:39:50.118Z,99.90
2019-02-04T08:42:30.866Z,99.90
2019-02-04T08:45:11.289Z,99.90
2019-02-04T08:47:51.712Z,99.90
2019-02-04T08:50:32.181Z,99.90
2019-02-04T08:53:12.833Z,99.90
2019-02-04T08:55:53.524Z,99.90
2019-02-04T08:58:34.350Z,99.90
2019-02-04T09:01:14.985Z,99.90
2019-02-04T09:03:55.646Z,99.90
2019-02-04T09:06:36.454Z,99.90
2019-02-04T09:09:17.285Z,99.90
2019-02-04T09:11:58.068Z,99.90
2019-02-04T09:14:38.722Z,99.90
2019-02-04T09:17:19.437Z,99.90
2019-02-04T09:20:09.671Z,99.90
2019-02-04T09:22:42.610Z,99.90
2019-02-04T09:25:23.150Z,99.90
2019-02-04T09:28:03.838Z,99.90
2019-02-04T09:30:44.315Z,99.90
2019-02-04T09:33:24.891Z,99.90
2019-02-04T09:36:06.580Z,99.90
2019-02-04T09:38:47.113Z,99.90
2019-02-04T09:41:28.005Z,99.90
2019-02-04T09:44:08.786Z,99.90
2019-02-04T09:46:49.661Z,99.90
2019-02-04T09:49:30.779Z,99.90
2019-02-04T09:52:12.133Z,99.90
2019-02-04T09:54:52.972Z,99.90
2019-02-04T09:57:33.355Z,99.90
2019-02-04T10:00:14.394Z,99.90
2019-02-04T10:02:55.166Z,99.90
2019-02-04T10:05:36.269Z,99.90
2019-02-04T10:08:16.906Z,99.90
2019-02-04T10:10:57.619Z,99.90
2019-02-04T10:13:38.460Z,99.90
2019-02-04T10:16:19.633Z,99.90
2019-02-04T10:19:00.534Z,99.90
2019-02-04T10:21:41.216Z,99.90
2019-02-04T10:24:21.874Z,99.90
2019-02-04T10:27:02.389Z,99.90
2019-02-04T10:29:43.410Z,99.90
2019-02-04T10:32:24.079Z,99.90
2019-02-04T10:35:16.259Z,99.90
2019-02-04T10:37:47.226Z,99.90
2019-02-04T10:40:28.019Z,99.90
2019-02-04T10:43:08.590Z,99.90
2019-02-04T10:45:49.181Z,99.90
2019-02-04T10:48:30.297Z,99.90
2019-02-04T10:51:11.029Z,99.90
2019-02-04T10:53:51.824Z,99.90
2019-02-04T10:56:32.201Z,99.90
2019-02-04T10:59:12.920Z,99.90
2019-02-04T11:01:53.796Z,99.90
2019-02-04T11:04:34.568Z,99.90
2019-02-04T11:07:15.045Z,99.90
2019-02-04T11:09:55.609Z,99.90
2019-02-04T11:12:36.531Z,99.90
2019-02-04T11:15:17.600Z,99.90
2019-02-04T11:17:58.124Z,99.90
2019-02-04T11:20:39.050Z,99.90
2019-02-04T11:23:20.072Z,99.90
2019-02-04T11:26:00.718Z,99.90
2019-02-04T11:28:41.449Z,99.90
2019-02-04T11:31:21.940Z,99.90
2019-02-04T11:34:02.798Z,99.90
2019-02-04T11:36:43.183Z,99.90
2019-02-04T11:39:24.134Z,99.90
2019-02-04T11:42:04.908Z,99.90
2019-02-04T11:44:45.596Z,99.90
2019-02-04T11:47:26.295Z,99.90
2019-02-04T11:50:06.997Z,99.90
2019-02-04T11:52:47.649Z,99.90
2019-02-04T11:55:28.396Z,99.90
2019-02-04T11:58:09.119Z,99.90
2019-02-04T12:00:50.103Z,99.90
2019-02-04T12:03:30.849Z,99.90
2019-02-04T12:06:11.949Z,99.90
2019-02-04T12:08:52.431Z,99.90
2019-02-04T12:11:33.108Z,99.90
2019-02-04T12:14:14.065Z,99.90
2019-02-04T12:16:54.285Z,99.90
2019-02-04T12:19:35.314Z,99.90
2019-02-04T12:22:16.190Z,99.30
2019-02-04T12:24:57.001Z,99.90
2019-02-04T12:27:37.965Z,99.90
2019-02-04T12:30:18.694Z,98.70
2019-02-04T12:32:59.175Z,98.20
2019-02-04T12:35:39.770Z,98.80
2019-02-04T12:38:20.173Z,98.60
2019-02-04T12:41:01.065Z,96.70
2019-02-04T12:43:41.314Z,96.20
2019-02-04T12:46:22.210Z,95.50
2019-02-04T12:49:02.749Z,95.50
2019-02-04T12:51:43.195Z,96.10
2019-02-04T12:54:26.588Z,96.60
2019-02-04T12:57:06.036Z,97.30
2019-02-04T12:59:46.827Z,96.60
2019-02-04T13:02:27.570Z,97.30
2019-02-04T13:05:07.914Z,97.80
2019-02-04T13:07:48.394Z,98.20
2019-02-04T13:10:28.710Z,97.50
2019-02-04T13:13:09.671Z,98.60
2019-02-04T13:15:50.644Z,98.00
2019-02-04T13:18:31.614Z,99.20
2019-02-04T13:21:12.612Z,99.30
2019-02-04T13:23:53.376Z,99.90
2019-02-04T13:26:34.179Z,99.90
2019-02-04T13:29:14.812Z,99.90
2019-02-04T13:31:55.755Z,99.90
2019-02-04T13:34:36.258Z,99.90
2019-02-04T13:37:16.780Z,99.90
2019-02-04T13:39:57.567Z,99.90
2019-02-04T13:42:38.059Z,99.90
2019-02-04T13:45:18.793Z,99.90
2019-02-04T13:47:59.609Z,99.90
2019-02-04T13:50:40.215Z,99.90
2019-02-04T13:53:21.008Z,99.90
2019-02-04T13:56:01.846Z,99.50
2019-02-04T13:58:42.729Z,97.50
2019-02-04T14:01:23.630Z,96.20
2019-02-04T14:04:04.566Z,94.50
2019-02-04T14:06:45.509Z,95.40
2019-02-04T14:09:25.988Z,95.90
2019-02-04T14:12:06.922Z,94.70
2019-02-04T14:14:47.889Z,95.70
2019-02-04T14:17:28.853Z,96.60
2019-02-04T14:20:09.148Z,96.20
2019-02-04T14:22:49.533Z,97.50
2019-02-04T14:25:30.395Z,96.50
2019-02-04T14:28:11.265Z,97.70
2019-02-04T14:30:52.000Z,98.30
2019-02-04T14:33:32.524Z,99.20
2019-02-04T14:36:12.957Z,99.70
2019-02-04T14:38:54.254Z,99.90
2019-02-04T14:41:34.669Z,99.90
2019-02-04T14:44:15.316Z,99.90
2019-02-04T14:46:56.067Z,99.90
2019-02-04T14:49:36.441Z,99.90
2019-02-04T14:52:21.589Z,99.90
2019-02-04T14:54:59.783Z,99.90
2019-02-04T14:57:40.475Z,99.90
2019-02-04T15:00:21.025Z,99.90
2019-02-04T15:03:01.407Z,99.90
2019-02-04T15:05:41.856Z,99.90
2019-02-04T15:08:33.019Z,99.90
2019-02-04T15:11:05.289Z,99.90
2019-02-04T15:13:46.269Z,99.90
2019-02-04T15:16:27.283Z,99.90
2019-02-04T15:19:07.805Z,99.90
2019-02-04T15:21:48.780Z,99.90
2019-02-04T15:24:29.111Z,99.90
2019-02-04T15:27:09.858Z,99.90
2019-02-04T15:29:50.934Z,99.90
2019-02-04T15:32:31.805Z,99.90
2019-02-04T15:35:12.566Z,99.90
2019-02-04T15:37:53.464Z,99.90
2019-02-04T15:40:33.858Z,99.90
2019-02-04T15:43:14.309Z,99.90
2019-02-04T15:45:54.894Z,99.90
2019-02-04T15:48:35.549Z,99.90
2019-02-04T15:51:16.009Z,99.90
2019-02-04T15:53:56.531Z,99.90
2019-02-04T15:56:36.971Z,99.90
2019-02-04T15:59:17.873Z,99.90
2019-02-04T16:01:59.030Z,99.90
2019-02-04T16:04:39.477Z,99.90
2019-02-04T16:07:20.224Z,99.90
2019-02-04T16:10:00.519Z,99.90
2019-02-04T16:12:40.913Z,99.90
2019-02-04T16:15:21.534Z,99.90
2019-02-04T16:18:02.254Z,99.90
2019-02-04T16:20:43.023Z,99.90
2019-02-04T16:23:24.265Z,99.90
2019-02-04T16:26:04.839Z,99.90
2019-02-04T16:28:45.463Z,99.90
2019-02-04T16:31:26.250Z,99.90
2019-02-04T16:34:07.141Z,99.90
2019-02-04T16:36:47.730Z,99.90
2019-02-04T16:39:28.200Z,99.90
2019-02-04T16:42:08.501Z,99.90
2019-02-04T16:44:49.429Z,99.90
2019-02-04T16:47:30.417Z,99.90
2019-02-04T16:50:11.102Z,99.90
2019-02-04T16:52:52.063Z,99.90
2019-02-04T16:55:32.669Z,99.90
2019-02-04T16:58:13.174Z,99.90
2019-02-04T17:00:53.735Z,99.90
2019-02-04T17:03:34.251Z,99.90
2019-02-04T17:06:14.729Z,99.90
2019-02-04T17:08:55.860Z,99.90
2019-02-04T17:11:36.599Z,99.90
2019-02-04T17:14:17.294Z,99.90
2019-02-04T17:16:57.951Z,99.90
2019-02-04T17:19:38.720Z,99.90
2019-02-04T17:22:19.584Z,99.90
2019-02-04T17:25:00.370Z,99.90
2019-02-04T17:27:40.765Z,99.90
2019-02-04T17:30:21.339Z,99.90
2019-02-04T17:33:01.908Z,99.90
2019-02-04T17:35:42.745Z,99.90
2019-02-04T17:38:23.432Z,99.90
2019-02-04T17:41:04.446Z,99.90
2019-02-04T17:43:44.915Z,99.90
2019-02-04T17:46:25.757Z,99.90
2019-02-04T17:49:06.688Z,99.90
2019-02-04T17:51:47.550Z,99.90
2019-02-04T17:54:28.210Z,99.90
2019-02-04T17:57:09.083Z,99.90
2019-02-04T17:59:49.609Z,99.90
2019-02-04T18:02:30.141Z,99.90
2019-02-04T18:05:10.480Z,99.90
2019-02-04T18:07:51.050Z,99.90
2019-02-04T18:10:31.804Z,99.90
2019-02-04T18:13:12.531Z,99.90
2019-02-04T18:15:53.191Z,99.90
2019-02-04T18:18:33.849Z,99.90
2019-02-04T18:21:14.467Z,99.90
2019-02-04T18:23:55.274Z,99.90
2019-02-04T18:26:36.328Z,99.90
2019-02-04T18:29:17.159Z,99.90
2019-02-04T18:31:57.843Z,99.90
2019-02-04T18:34:38.534Z,99.90
2019-02-04T18:37:19.016Z,99.90
2019-02-04T18:39:59.949Z,99.90
2019-02-04T18:42:40.737Z,99.90
2019-02-04T18:45:21.474Z,99.90
2019-02-04T18:48:02.232Z,99.90
2019-02-04T18:50:42.935Z,99.90
2019-02-04T18:53:23.770Z,99.90
2019-02-04T18:56:04.291Z,99.90
2019-02-04T18:58:45.079Z,99.90
2019-02-04T19:01:25.789Z,99.90
2019-02-04T19:04:06.409Z,99.90
2019-02-04T19:06:48.027Z,99.90
2019-02-04T19:09:28.585Z,99.90
2019-02-04T19:12:09.481Z,99.90
2019-02-04T19:14:49.785Z,99.90
2019-02-04T19:17:30.653Z,99.90
2019-02-04T19:20:11.502Z,99.90
2019-02-04T19:22:52.016Z,99.90
2019-02-04T19:25:32.588Z,99.90
2019-02-04T19:28:13.142Z,99.90
2019-02-04T19:30:54.805Z,99.90
2019-02-04T19:33:35.610Z,99.90
2019-02-04T19:36:18.475Z,99.90
2019-02-04T19:38:58.843Z,99.90
2019-02-04T19:41:39.331Z,99.90
2019-02-04T19:44:19.779Z,99.90
2019-02-04T19:47:00.159Z,99.90
2019-02-04T19:49:40.606Z,99.90
2019-02-04T19:52:21.580Z,99.90
2019-02-04T19:55:02.361Z,99.90
2019-02-04T19:57:44.061Z,99.90
2019-02-04T20:00:25.044Z,99.90
2019-02-04T20:03:05.744Z,99.90
2019-02-04T20:05:46.359Z,99.90
2019-02-04T20:08:27.021Z,99.90
2019-02-04T20:11:07.665Z,99.90
2019-02-04T20:13:48.351Z,99.90
2019-02-04T20:16:29.065Z,99.90
2019-02-04T20:19:09.451Z,99.90
2019-02-04T20:21:50.155Z,99.90
2019-02-04T20:24:33.168Z,99.90
2019-02-04T20:27:13.715Z,99.90
2019-02-04T20:29:54.639Z,99.90
2019-02-04T20:32:35.195Z,99.90
2019-02-04T20:35:15.789Z,99.90
2019-02-04T20:37:56.341Z,99.90
2019-02-04T20:40:37.248Z,99.90
2019-02-04T20:43:18.098Z,99.90
2019-02-04T20:45:58.594Z,99.90
2019-02-04T20:48:39.546Z,99.90
2019-02-04T20:51:20.233Z,99.90
2019-02-04T20:54:01.239Z,99.90
2019-02-04T20:56:42.162Z,99.90
2019-02-04T20:59:23.231Z,99.90
2019-02-04T21:02:03.898Z,99.90
2019-02-04T21:04:44.490Z,99.90
2019-02-04T21:07:25.334Z,99.90
2019-02-04T21:10:06.110Z,99.90
2019-02-04T21:12:46.511Z,99.90
2019-02-04T21:15:27.299Z,99.90
2019-02-04T21:18:08.371Z,99.90
2019-02-04T21:20:49.404Z,99.90
2019-02-04T21:23:30.086Z,99.90
2019-02-04T21:26:10.706Z,99.90
2019-02-04T21:28:51.647Z,99.90
2019-02-04T21:31:32.856Z,99.90
2019-02-04T21:34:13.215Z,99.90
2019-02-04T21:36:53.826Z,99.90
2019-02-04T21:39:34.381Z,99.90
2019-02-04T21:42:15.225Z,99.90
2019-02-04T21:44:55.634Z,99.90
2019-02-04T21:47:36.563Z,99.90
2019-02-04T21:50:17.334Z,99.90
2019-02-04T21:52:58.464Z,99.90
2019-02-04T21:55:39.771Z,99.90
2019-02-04T21:58:20.280Z,99.90
2019-02-04T22:01:01.045Z,99.90
2019-02-04T22:03:41.747Z,99.90
2019-02-04T22:06:22.598Z,99.90
2019-02-04T22:09:04.225Z,99.90
2019-02-04T22:11:44.921Z,99.90
2019-02-04T22:14:26.063Z,99.90
2019-02-04T22:17:06.940Z,99.90
2019-02-04T22:19:47.844Z,99.90
2019-02-04T22:22:28.643Z,99.90
2019-02-04T22:25:19.521Z,99.90
2019-02-04T22:27:51.481Z,99.90
2019-02-04T22:30:32.229Z,99.90
2019-02-04T22:33:13.105Z,99.90
2019-02-04T22:35:54.033Z,99.90
2019-02-04T22:38:34.610Z,99.90
2019-02-04T22:41:15.288Z,99.90
2019-02-04T22:43:55.826Z,99.90
2019-02-04T22:46:36.395Z,99.90
2019-02-04T22:49:17.285Z,99.90
2019-02-04T22:51:57.840Z,99.90
2019-02-04T22:54:38.514Z,99.90
2019-02-04T22:57:18.990Z,99.90
2019-02-04T22:59:59.931Z,99.90
2019-02-04T23:02:40.689Z,99.90
2019-02-04T23:05:21.240Z,99.90
2019-02-04T23:08:02.606Z,99.90
2019-02-04T23:10:43.218Z,99.90
2019-02-04T23:13:24.049Z,99.90
2019-02-04T23:16:05.219Z,99.90
2019-02-04T23:18:45.760Z,99.90
2019-02-04T23:21:26.554Z,99.90
2019-02-04T23:24:07.201Z,99.90
2019-02-04T23:26:47.574Z,99.90
2019-02-04T23:29:28.115Z,99.90
2019-02-04T23:32:09.469Z,99.90
2019-02-04T23:34:50.131Z,99.90
2019-02-04T23:37:30.858Z,99.90
2019-02-04T23:40:11.971Z,99.90
2019-02-04T23:42:52.904Z,99.90
2019-02-04T23:45:33.900Z,99.90
2019-02-04T23:48:14.354Z,99.90
2019-02-04T23:50:54.990Z,99.90
2019-02-04T23:53:35.337Z,99.90
2019-02-04T23:56:15.823Z,99.90
2019-02-04T23:58:56.389Z,99.90
